Time;durP1;ratioP1;P1;durP2;ratioP2;P2;SDS_P1;SDS_P2;PMS_P1;PMS_P2;Temp;Humidity;BMP_temperature;BMP_pressure;BME280_temperature;BME280_humidity;BME280_pressure;Samples;Min_cycle;Max_cycle;Signal;HPM_P1;HPM_P2
2023/01/13 00:01:07;;;;;;;12.73;2.20;;;9.40;99.90;;;;;;4180749;28;20045;-87
2023/01/13 00:03:08;;;;;;;24.02;2.67;;;9.60;99.90;;;;;;4181631;28;20073;-88
2023/01/13 00:05:10;;;;;;;20.45;2.78;;;9.40;99.90;;;;;;4180595;28;20098;-87
2023/01/13 00:07:11;;;;;;;16.63;3.13;;;11.20;99.90;;;;;;4180282;28;20405;-88
2023/01/13 00:09:13;;;;;;;24.02;3.17;;;9.30;99.90;;;;;;4163891;28;20049;-88
2023/01/13 00:11:15;;;;;;;20.70;3.13;;;9.40;99.90;;;;;;4181828;28;20049;-89
2023/01/13 00:13:25;;;;;;;19.70;3.20;;;9.40;99.90;;;;;;4183430;28;20080;-88
2023/01/13 00:15:26;;;;;;;13.80;2.15;;;9.10;99.90;;;;;;4182124;28;20128;-87
2023/01/13 00:17:26;;;;;;;12.00;2.17;;;9.10;99.90;;;;;;4179855;28;20047;-88
2023/01/13 00:19:27;;;;;;;15.32;2.13;;;9.10;99.90;;;;;;4183026;28;20102;-88
2023/01/13 00:21:31;;;;;;;16.42;3.30;;;9.30;99.90;;;;;;4183663;28;20528;-87
2023/01/13 00:23:34;;;;;;;20.08;2.70;;;9.10;99.90;;;;;;4166416;28;20480;-88
2023/01/13 00:25:34;;;;;;;17.52;2.90;;;9.00;99.90;;;;;;4166006;28;20049;-87
2023/01/13 00:27:37;;;;;;;21.55;2.55;;;9.00;99.90;;;;;;4183310;28;20045;-88
2023/01/13 00:29:37;;;;;;;17.63;3.60;;;9.00;99.90;;;;;;4183506;28;20036;-88
2023/01/13 00:31:38;;;;;;;21.73;2.78;;;8.80;99.90;;;;;;4199277;28;20060;-87
2023/01/13 00:33:39;;;;;;;22.15;3.40;;;9.00;99.90;;;;;;4200910;28;20090;-88
2023/01/13 00:35:41;;;;;;;24.02;3.35;;;8.90;99.90;;;;;;4199419;28;20456;-88
2023/01/13 00:37:42;;;;;;;21.13;3.83;;;7.00;99.90;;;;;;4199272;28;20044;-88
2023/01/13 00:39:44;;;;;;;22.90;4.05;;;8.60;99.90;;;;;;4183250;28;20480;-88
2023/01/13 00:44:05;;;;;;;24.90;4.00;;;8.70;99.90;;;;;;4199432;28;20056;-87
2023/01/13 00:46:09;;;;;;;26.65;4.00;;;8.60;99.90;;;;;;4183315;28;20041;-88
2023/01/13 00:48:09;;;;;;;23.70;3.88;;;8.60;99.90;;;;;;4172566;28;20076;-88
2023/01/13 00:50:10;;;;;;;26.85;4.50;;;8.60;99.90;;;;;;4200876;28;20405;-88
2023/01/13 00:52:11;;;;;;;24.67;3.38;;;8.60;99.90;;;;;;4183740;28;20052;-88
2023/01/13 00:54:12;;;;;;;27.77;5.18;;;8.60;99.90;;;;;;4199579;28;20448;-88
2023/01/13 00:56:15;;;;;;;18.85;2.83;;;8.50;99.90;;;;;;4183097;28;20040;-88
2023/01/13 00:58:15;;;;;;;21.10;3.70;;;8.50;99.90;;;;;;4200015;28;20045;-88
2023/01/13 01:00:17;;;;;;;25.83;3.80;;;8.50;99.90;;;;;;4201333;28;20098;-88
2023/01/13 01:02:19;;;;;;;26.33;5.40;;;8.50;99.90;;;;;;4202435;28;20051;-88
2023/01/13 01:04:21;;;;;;;26.70;4.00;;;8.50;99.90;;;;;;4182952;28;20183;-87
2023/01/13 01:06:25;;;;;;;23.00;3.67;;;8.50;99.90;;;;;;4197421;28;20566;-88
2023/01/13 01:08:26;;;;;;;24.52;3.72;;;8.50;99.90;;;;;;4201215;28;20055;-87
2023/01/13 01:10:28;;;;;;;30.92;4.03;;;8.50;99.90;;;;;;4199626;28;20045;-89
2023/01/13 01:12:29;;;;;;;27.25;4.22;;;8.40;99.90;;;;;;4199945;28;20135;-87
2023/01/13 01:14:30;;;;;;;25.10;4.55;;;8.40;99.90;;;;;;4199923;28;20412;-88
2023/01/13 01:16:32;;;;;;;26.33;3.70;;;8.40;99.90;;;;;;4200593;28;20048;-88
2023/01/13 01:18:34;;;;;;;33.42;4.68;;;8.40;99.90;;;;;;4199704;28;20056;-88
2023/01/13 01:20:38;;;;;;;26.27;3.85;;;8.40;99.90;;;;;;4183393;28;20063;-88
2023/01/13 01:22:38;;;;;;;20.00;4.65;;;8.30;99.90;;;;;;4175122;28;20043;-88
2023/01/13 01:24:40;;;;;;;33.08;4.07;;;8.30;99.90;;;;;;4184902;28;20041;-88
2023/01/13 01:26:41;;;;;;;21.90;5.30;;;8.30;99.90;;;;;;4166836;28;20100;-87
2023/01/13 01:28:45;;;;;;;22.30;3.97;;;8.20;99.90;;;;;;4183564;28;20509;-88
2023/01/13 01:30:45;;;;;;;27.42;3.70;;;8.20;99.90;;;;;;4166520;28;20168;-87
2023/01/13 01:32:47;;;;;;;21.75;3.35;;;8.20;99.90;;;;;;4167011;28;20533;-88
2023/01/13 01:34:50;;;;;;;30.95;3.25;;;8.20;99.90;;;;;;4167033;28;20188;-87
2023/01/13 01:36:50;;;;;;;26.55;3.92;;;8.20;99.90;;;;;;4167710;28;20046;-88
2023/01/13 01:38:51;;;;;;;18.33;4.35;;;8.30;99.90;;;;;;4191003;28;20082;-87
2023/01/13 01:40:53;;;;;;;32.45;5.03;;;8.20;99.90;;;;;;4202325;28;20091;-87
2023/01/13 01:45:28;;;;;;;28.00;3.90;;;8.20;99.90;;;;;;4189329;28;20076;-88
2023/01/13 01:47:31;;;;;;;25.08;4.03;;;8.20;99.90;;;;;;4187968;28;20049;-88
2023/01/13 01:49:35;;;;;;;24.23;3.80;;;8.20;99.90;;;;;;4184183;28;20127;-88
2023/01/13 01:51:45;;;;;;;29.05;4.32;;;8.20;99.90;;;;;;4184430;28;20051;-88
2023/01/13 01:53:46;;;;;;;28.65;4.18;;;8.20;99.90;;;;;;4183937;28;20124;-88
2023/01/13 01:55:47;;;;;;;25.63;5.50;;;8.10;99.90;;;;;;4166012;28;20109;-88
2023/01/13 01:57:51;;;;;;;26.83;3.95;;;8.20;99.90;;;;;;4189442;28;20123;-88
2023/01/13 01:59:55;;;;;;;31.48;5.45;;;8.20;99.90;;;;;;4166392;28;20052;-88
2023/01/13 02:01:56;;;;;;;26.95;4.35;;;8.10;99.90;;;;;;4165867;28;20053;-88
2023/01/13 02:04:04;;;;;;;16.40;3.95;;;8.20;99.90;;;;;;4183536;28;20077;-88
2023/01/13 02:06:05;;;;;;;31.02;4.28;;;8.20;99.90;;;;;;4165724;28;20092;-88
2023/01/13 02:08:08;;;;;;;26.80;3.33;;;8.20;99.90;;;;;;4183713;28;20045;-88
2023/01/13 02:10:12;;;;;;;33.85;4.35;;;8.20;99.90;;;;;;4182166;28;20063;-88
2023/01/13 02:12:33;;;;;;;17.33;3.35;;;8.20;99.90;;;;;;4182827;28;20048;-88
2023/01/13 02:14:36;;;;;;;23.13;2.65;;;8.20;99.90;;;;;;4195746;28;20044;-88
2023/01/13 02:16:39;;;;;;;22.08;3.90;;;8.20;99.90;;;;;;4200221;28;20052;-88
2023/01/13 02:19:14;;;;;;;30.35;4.03;;;8.20;99.90;;;;;;4193346;28;20041;-88
2023/01/13 02:21:39;;;;;;;22.25;4.25;;;8.20;99.90;;;;;;4183004;28;20152;-88
2023/01/13 02:26:17;;;;;;;25.98;4.32;;;8.20;99.90;;;;;;4182991;28;20497;-88
2023/01/13 02:33:37;;;;;;;26.08;3.50;;;8.10;99.90;;;;;;4184884;28;20052;-88
2023/01/13 02:35:55;;;;;;;27.63;3.63;;;8.10;99.90;;;;;;4183486;28;20065;-88
2023/01/13 02:37:59;;;;;;;28.35;3.13;;;8.10;99.90;;;;;;4166260;28;20049;-89
2023/01/13 02:40:58;;;;;;;33.42;4.32;;;8.10;99.90;;;;;;4182237;28;20094;-88
2023/01/13 02:45:45;;;;;;;17.08;4.65;;;8.10;99.90;;;;;;4183940;28;20064;-88
2023/01/13 02:47:49;;;;;;;35.97;4.93;;;8.10;99.90;;;;;;4165418;28;20083;-88
2023/01/13 02:49:57;;;;;;;28.80;3.42;;;8.10;99.90;;;;;;4186649;28;20472;-88
2023/01/13 02:52:35;;;;;;;25.85;4.45;;;8.10;99.90;;;;;;4182815;28;20509;-88
2023/01/13 02:54:37;;;;;;;29.25;4.47;;;8.10;99.90;;;;;;4174696;28;20398;-89
2023/01/13 02:56:44;;;;;;;31.92;5.28;;;8.10;99.90;;;;;;4182802;28;20037;-88
2023/01/13 02:58:47;;;;;;;24.05;3.58;;;8.10;99.90;;;;;;4165960;28;20057;-88
2023/01/13 03:00:48;;;;;;;24.48;4.68;;;8.10;99.90;;;;;;4165544;28;20041;-88
2023/01/13 03:02:50;;;;;;;27.60;5.05;;;8.10;99.90;;;;;;4182775;28;20092;-88
2023/01/13 03:04:57;;;;;;;21.73;4.18;;;8.20;99.90;;;;;;4166301;28;20053;-88
2023/01/13 03:07:37;;;;;;;28.17;3.47;;;8.20;99.90;;;;;;4171167;28;20417;-88
2023/01/13 03:09:50;;;;;;;21.83;3.33;;;8.20;99.90;;;;;;4180362;28;20060;-88
2023/01/13 03:11:57;;;;;;;33.80;5.20;;;8.20;99.90;;;;;;4182012;28;20541;-88
2023/01/13 03:13:58;;;;;;;33.92;4.88;;;8.20;99.90;;;;;;4167034;28;20050;-88
2023/01/13 03:16:37;;;;;;;22.00;3.13;;;8.20;99.90;;;;;;4167212;28;20080;-88
2023/01/13 03:18:54;;;;;;;24.15;4.05;;;8.30;99.90;;;;;;4166214;28;20048;-87
2023/01/13 03:21:06;;;;;;;25.73;4.43;;;8.20;99.90;;;;;;4165474;28;20145;-88
2023/01/13 03:23:16;;;;;;;25.27;3.20;;;8.20;99.90;;;;;;4188934;28;20448;-89
2023/01/13 03:25:39;;;;;;;27.33;4.95;;;8.20;99.90;;;;;;4167359;28;20152;-88
2023/01/13 03:27:43;;;;;;;21.88;2.85;;;8.20;99.90;;;;;;4165139;28;20037;-88
2023/01/13 03:29:59;;;;;;;17.52;3.78;;;8.30;99.90;;;;;;4182748;28;20131;-88
2023/01/13 03:32:11;;;;;;;30.60;3.33;;;8.20;99.90;;;;;;4182166;28;20049;-88
2023/01/13 03:34:19;;;;;;;25.98;4.15;;;8.20;99.90;;;;;;4182956;28;20048;-88
2023/01/13 03:36:24;;;;;;;19.30;2.72;;;8.40;99.90;;;;;;4164801;28;20128;-89
2023/01/13 03:38:37;;;;;;;35.33;4.28;;;8.20;99.90;;;;;;4166182;28;20044;-88
2023/01/13 03:40:52;;;;;;;21.05;3.60;;;8.20;99.90;;;;;;4165942;28;20053;-88
2023/01/13 03:45:19;;;;;;;19.23;3.05;;;8.20;99.90;;;;;;4198067;28;20056;-88
2023/01/13 03:47:27;;;;;;;23.63;5.25;;;8.20;99.90;;;;;;4181814;28;20096;-87
2023/01/13 03:49:40;;;;;;;24.35;2.60;;;8.20;99.90;;;;;;4198238;28;20041;-88
2023/01/13 03:51:46;;;;;;;24.17;3.05;;;8.30;99.90;;;;;;4199216;28;20519;-88
2023/01/13 03:53:53;;;;;;;13.52;3.13;;;8.30;99.90;;;;;;4200933;28;20052;-88
2023/01/13 03:56:10;;;;;;;18.20;3.40;;;8.30;99.90;;;;;;4184429;28;20158;-88
2023/01/13 03:58:21;;;;;;;17.45;3.90;;;8.30;99.90;;;;;;4183656;28;20049;-88
2023/01/13 04:00:27;;;;;;;23.60;4.18;;;8.30;99.90;;;;;;4196762;28;20056;-88
2023/01/13 04:02:46;;;;;;;15.32;2.70;;;8.30;99.90;;;;;;4200823;28;20078;-88
2023/01/13 04:04:58;;;;;;;20.63;3.58;;;8.30;99.90;;;;;;4200273;28;20139;-88
2023/01/13 04:07:11;;;;;;;18.13;3.47;;;8.30;99.90;;;;;;4185506;28;20084;-88
2023/01/13 04:09:39;;;;;;;22.40;3.22;;;8.30;99.90;;;;;;4193530;28;20040;-88
2023/01/13 04:11:45;;;;;;;22.48;4.50;;;8.30;99.90;;;;;;4185622;28;20435;-88
2023/01/13 04:13:47;;;;;;;12.50;3.30;;;8.30;99.90;;;;;;4167006;28;20142;-88
2023/01/13 04:15:49;;;;;;;23.02;3.95;;;8.30;99.90;;;;;;4189145;28;20053;-88
2023/01/13 04:17:50;;;;;;;25.60;2.97;;;8.30;99.90;;;;;;4197768;28;20047;-88
2023/01/13 04:19:51;;;;;;;21.65;4.32;;;8.40;99.90;;;;;;4187394;28;20044;-88
2023/01/13 04:21:53;;;;;;;28.55;3.42;;;8.20;99.90;;;;;;4183704;28;20053;-88
2023/01/13 04:23:54;;;;;;;20.05;3.45;;;8.20;99.90;;;;;;4185679;28;20052;-88
2023/01/13 04:25:56;;;;;;;19.20;3.72;;;8.30;99.90;;;;;;4184822;28;20045;-88
2023/01/13 04:27:57;;;;;;;27.92;4.80;;;8.20;99.90;;;;;;4166980;28;20037;-88
2023/01/13 04:29:58;;;;;;;25.60;3.25;;;8.20;99.90;;;;;;4183798;28;20040;-88
2023/01/13 04:32:01;;;;;;;26.58;3.25;;;8.20;99.90;;;;;;4166995;28;20143;-88
2023/01/13 04:34:02;;;;;;;20.35;3.10;;;8.20;99.90;;;;;;4182947;28;20052;-88
2023/01/13 04:36:02;;;;;;;22.10;3.15;;;8.10;99.90;;;;;;4193506;28;20033;-86
2023/01/13 04:38:09;;;;;;;19.63;3.55;;;8.10;99.90;;;;;;4183099;28;20045;-87
2023/01/13 04:40:10;;;;;;;19.10;3.13;;;8.20;99.90;;;;;;4201555;28;20048;-88
2023/01/13 04:42:11;;;;;;;22.55;4.82;;;8.20;99.90;;;;;;4201980;28;20547;-89
2023/01/13 04:44:12;;;;;;;19.45;4.47;;;8.20;99.90;;;;;;4186217;28;20490;-88
2023/01/13 04:46:13;;;;;;;27.27;3.58;;;8.20;99.90;;;;;;4199264;28;20048;-87
2023/01/13 04:48:14;;;;;;;24.67;4.13;;;8.20;99.90;;;;;;4199129;28;20048;-87
2023/01/13 04:50:18;;;;;;;27.40;3.80;;;8.20;99.90;;;;;;4199882;28;20076;-87
2023/01/13 04:52:20;;;;;;;29.98;4.70;;;8.30;99.90;;;;;;4196918;28;20548;-86
2023/01/13 04:54:20;;;;;;;30.20;4.03;;;8.30;99.90;;;;;;4199760;28;20446;-84
2023/01/13 04:56:21;;;;;;;18.17;2.55;;;8.30;99.90;;;;;;4200261;28;20114;-88
2023/01/13 04:58:22;;;;;;;22.08;3.05;;;8.30;99.90;;;;;;4199985;28;20378;-86
2023/01/13 05:00:23;;;;;;;21.02;4.18;;;8.30;99.90;;;;;;4199704;28;20040;-86
2023/01/13 05:02:24;;;;;;;22.52;3.78;;;8.30;99.90;;;;;;4182312;28;20041;-87
2023/01/13 05:04:25;;;;;;;27.88;5.07;;;8.40;99.90;;;;;;4180999;28;20435;-85
2023/01/13 05:06:25;;;;;;;17.05;3.38;;;8.40;99.90;;;;;;4199817;28;20041;-86
2023/01/13 05:08:26;;;;;;;19.65;3.08;;;8.30;99.90;;;;;;4194115;28;20078;-86
2023/01/13 05:10:27;;;;;;;25.60;4.22;;;8.40;99.90;;;;;;4198901;28;20036;-86
2023/01/13 05:17:09;;;;;;;13.23;2.72;;;8.40;99.90;;;;;;4199317;28;20049;-86
2023/01/13 05:19:10;;;;;;;14.45;2.90;;;8.40;99.90;;;;;;4197702;28;20072;-87
2023/01/13 05:25:20;;;;;;;26.17;4.00;;;8.40;99.90;;;;;;4197377;28;20714;-87
2023/01/13 05:25:53;;;;;;;16.70;3.03;;;8.40;99.90;;;;;;4198225;28;20131;-86
2023/01/13 05:27:56;;;;;;;26.17;3.35;;;8.40;99.90;;;;;;4197403;28;20473;-87
2023/01/13 05:29:57;;;;;;;18.63;3.90;;;8.40;99.90;;;;;;4185996;28;20080;-87
2023/01/13 05:32:00;;;;;;;27.33;3.83;;;8.40;99.90;;;;;;4182318;28;20135;-86
2023/01/13 05:34:01;;;;;;;23.35;4.75;;;8.40;99.90;;;;;;4183083;28;20041;-87
2023/01/13 05:36:02;;;;;;;12.70;2.33;;;8.50;99.90;;;;;;4181985;28;20394;-87
2023/01/13 05:38:03;;;;;;;23.80;3.10;;;8.50;99.90;;;;;;4182444;28;20045;-87
2023/01/13 05:44:42;;;;;;;15.05;2.38;;;8.60;99.90;;;;;;4181617;28;20509;-86
2023/01/13 05:46:43;;;;;;;18.77;2.42;;;8.60;99.90;;;;;;4195863;28;20051;-86
2023/01/13 05:48:46;;;;;;;19.33;3.33;;;8.60;99.90;;;;;;4199094;28;20045;-86
2023/01/13 05:50:48;;;;;;;15.40;2.72;;;8.60;99.90;;;;;;4199875;28;20055;-87
2023/01/13 05:52:49;;;;;;;16.88;2.78;;;8.70;99.90;;;;;;4199375;28;20052;-86
2023/01/13 05:54:51;;;;;;;9.43;2.00;;;8.60;99.90;;;;;;4200270;28;20064;-87
2023/01/13 05:56:52;;;;;;;15.75;3.40;;;8.60;99.90;;;;;;4202198;28;20051;-86
2023/01/13 05:58:52;;;;;;;19.88;3.25;;;8.60;99.90;;;;;;4198443;28;20088;-86
2023/01/13 06:01:06;;;;;;;19.52;3.20;;;8.60;99.90;;;;;;4195871;28;20403;-86
2023/01/13 06:03:06;;;;;;;7.78;1.50;;;8.60;99.90;;;;;;4182864;28;20041;-86
2023/01/13 06:05:07;;;;;;;14.68;2.95;;;8.60;99.90;;;;;;4182381;28;20156;-87
2023/01/13 06:07:08;;;;;;;14.90;2.50;;;8.60;99.90;;;;;;4182484;28;20047;-86
2023/01/13 06:09:09;;;;;;;24.60;3.10;;;8.60;99.90;;;;;;4181051;28;20048;-87
2023/01/13 06:11:10;;;;;;;16.92;2.90;;;8.60;99.90;;;;;;4163877;28;20513;-86
2023/01/13 06:13:11;;;;;;;14.45;2.78;;;8.60;99.90;;;;;;4180550;28;20086;-87
2023/01/13 06:15:12;;;;;;;14.50;2.45;;;8.50;99.90;;;;;;4180572;28;20525;-86
2023/01/13 06:17:14;;;;;;;14.25;2.60;;;8.50;99.90;;;;;;4181361;28;20037;-86
2023/01/13 06:19:15;;;;;;;31.80;4.05;;;8.50;99.90;;;;;;4180056;28;20056;-87
2023/01/13 06:21:15;;;;;;;17.55;2.38;;;8.50;99.90;;;;;;4175121;28;20061;-87
2023/01/13 06:23:17;;;;;;;22.58;2.17;;;8.50;99.90;;;;;;4197521;28;20570;-87
2023/01/13 06:25:22;;;;;;;20.42;3.22;;;8.50;99.90;;;;;;4198510;28;20496;-87
2023/01/13 06:27:22;;;;;;;22.08;3.33;;;8.40;99.90;;;;;;4197388;28;20044;-86
2023/01/13 06:29:23;;;;;;;16.77;2.97;;;8.40;99.90;;;;;;4196535;28;20045;-86
2023/01/13 06:31:25;;;;;;;19.27;2.70;;;8.40;99.90;;;;;;4187092;28;20052;-86
2023/01/13 06:33:30;;;;;;;14.23;2.72;;;;;;;;;;4180372;28;20052;-86
2023/01/13 06:35:34;;;;;;;19.23;2.97;;;8.40;99.90;;;;;;4180492;28;20489;-86
2023/01/13 06:37:36;;;;;;;18.58;3.00;;;8.80;99.90;;;;;;4180666;28;20048;-86
2023/01/13 06:39:37;;;;;;;15.20;2.70;;;8.60;99.90;;;;;;4180363;28;20468;-86
2023/01/13 06:43:57;;;;;;;16.42;2.80;;;8.70;99.90;;;;;;4181440;28;20136;-86
2023/01/13 06:46:00;;;;;;;8.45;1.80;;;8.30;99.90;;;;;;4180016;28;20139;-86
2023/01/13 06:48:01;;;;;;;14.75;2.80;;;8.50;99.90;;;;;;4186017;28;20124;-87
2023/01/13 06:50:01;;;;;;;17.98;3.65;;;8.40;99.90;;;;;;4180692;28;20498;-87
2023/01/13 06:52:02;;;;;;;16.55;2.40;;;8.50;99.90;;;;;;4163938;28;20049;-86
2023/01/13 06:54:03;;;;;;;20.52;3.67;;;8.40;99.90;;;;;;4181044;28;20095;-86
2023/01/13 06:56:04;;;;;;;22.58;3.40;;;8.30;99.90;;;;;;4194769;28;20453;-88
2023/01/13 06:58:05;;;;;;;13.38;2.65;;;;;;;;;;4197845;28;20222;-87
2023/01/13 07:00:06;;;;;;;16.27;3.40;;;8.10;99.90;;;;;;4198129;28;20049;-87
2023/01/13 07:02:07;;;;;;;12.90;2.40;;;7.80;99.90;;;;;;4198259;28;20047;-87
2023/01/13 07:04:08;;;;;;;14.80;2.15;;;8.10;99.90;;;;;;4180451;28;20530;-87
2023/01/13 07:06:09;;;;;;;17.88;3.17;;;8.00;99.90;;;;;;4180758;28;20057;-89
2023/01/13 07:08:10;;;;;;;22.25;3.78;;;7.90;99.90;;;;;;4180209;28;20155;-87
2023/01/13 07:10:20;;;;;;;18.85;2.10;;;7.90;99.90;;;;;;4185070;28;20056;-87
2023/01/13 07:12:21;;;;;;;22.92;3.53;;;8.10;99.90;;;;;;4183295;28;20413;-87
2023/01/13 07:16:43;;;;;;;12.85;3.35;;;;;;;;;;4192722;28;20045;-87
2023/01/13 07:18:44;;;;;;;13.15;2.47;;;7.70;99.90;;;;;;4185862;28;20086;-87
2023/01/13 07:20:52;;;;;;;19.33;3.03;;;7.70;99.90;;;;;;4186628;28;20151;-87
2023/01/13 07:22:54;;;;;;;10.13;2.03;;;7.70;99.90;;;;;;4189064;28;20028;-87
2023/01/13 07:24:55;;;;;;;17.60;2.28;;;7.70;99.90;;;;;;4198719;28;20482;-87
2023/01/13 07:26:56;;;;;;;15.65;3.40;;;7.60;99.90;;;;;;4196595;28;20060;-87
2023/01/13 07:28:57;;;;;;;17.83;2.65;;;7.50;99.90;;;;;;4190147;28;20060;-88
2023/01/13 07:30:59;;;;;;;13.73;2.65;;;7.70;99.90;;;;;;4192893;28;20048;-87
2023/01/13 07:32:59;;;;;;;15.75;2.13;;;7.70;99.90;;;;;;4197611;28;20139;-86
2023/01/13 07:35:04;;;;;;;14.50;2.08;;;7.70;99.90;;;;;;4197029;28;20052;-86
2023/01/13 07:37:04;;;;;;;20.15;4.15;;;7.70;99.90;;;;;;4197648;28;20048;-86
2023/01/13 07:39:06;;;;;;;20.35;3.53;;;7.60;99.90;;;;;;4180855;28;20436;-86
2023/01/13 07:43:33;;;;;;;15.35;1.90;;;7.80;99.90;;;;;;4197889;28;20087;-87
2023/01/13 07:45:34;;;;;;;18.98;2.03;;;7.40;99.90;;;;;;4188498;28;20146;-87
2023/01/13 07:47:34;;;;;;;20.48;3.47;;;7.40;99.90;;;;;;4185586;28;20072;-86
2023/01/13 07:49:36;;;;;;;19.58;2.33;;;7.40;99.90;;;;;;4191378;28;20049;-86
2023/01/13 07:51:38;;;;;;;16.85;2.85;;;7.40;99.90;;;;;;4199065;28;20111;-88
2023/01/13 07:53:39;;;;;;;13.77;2.35;;;7.40;99.90;;;;;;4198449;28;20107;-87
2023/01/13 07:55:43;;;;;;;20.17;3.88;;;7.30;99.90;;;;;;4197328;28;20114;-87
2023/01/13 07:57:44;;;;;;;16.17;1.73;;;7.40;99.90;;;;;;4192102;28;20055;-88
2023/01/13 07:59:45;;;;;;;17.33;4.18;;;7.40;99.90;;;;;;4198389;28;20471;-88
2023/01/13 08:01:47;;;;;;;12.43;1.67;;;7.40;99.90;;;;;;4199070;28;20044;-87
2023/01/13 08:03:48;;;;;;;17.60;3.22;;;7.40;99.90;;;;;;4198875;28;20049;-87
2023/01/13 08:05:48;;;;;;;15.63;3.03;;;7.40;99.90;;;;;;4182316;28;20049;-87
2023/01/13 08:07:49;;;;;;;16.00;2.92;;;7.40;99.90;;;;;;4197959;28;20111;-88
2023/01/13 08:09:50;;;;;;;19.52;2.75;;;7.50;99.90;;;;;;4198560;28;20050;-88
2023/01/13 08:14:15;;;;;;;15.48;3.00;;;7.50;99.90;;;;;;4198003;28;20065;-88
2023/01/13 08:16:15;;;;;;;12.25;2.40;;;7.50;99.90;;;;;;4196541;28;20048;-87
2023/01/13 08:18:20;;;;;;;21.58;2.95;;;7.80;99.90;;;;;;4173271;28;20116;-87
2023/01/13 08:20:22;;;;;;;21.58;2.80;;;7.60;99.90;;;;;;4195189;28;20090;-88
2023/01/13 08:22:24;;;;;;;11.38;2.15;;;7.60;99.90;;;;;;4181330;28;20041;-87
2023/01/13 08:24:25;;;;;;;20.70;2.47;;;7.60;99.90;;;;;;4195867;28;20086;-86
2023/01/13 08:26:26;;;;;;;14.90;2.55;;;7.60;99.90;;;;;;4189813;28;20111;-87
2023/01/13 08:28:28;;;;;;;11.40;2.50;;;7.70;99.90;;;;;;4180436;28;20044;-87
2023/01/13 08:30:29;;;;;;;29.50;3.78;;;7.70;99.90;;;;;;4179266;28;20059;-87
2023/01/13 08:32:30;;;;;;;12.93;2.72;;;7.70;99.90;;;;;;4185326;28;20045;-87
2023/01/13 08:34:31;;;;;;;14.63;3.15;;;7.70;99.90;;;;;;4181217;28;20053;-88
2023/01/13 08:36:32;;;;;;;16.17;2.38;;;7.70;99.90;;;;;;4180374;28;20045;-87
2023/01/13 08:38:33;;;;;;;11.75;2.25;;;8.40;99.90;;;;;;4191208;28;20041;-86
2023/01/13 08:40:34;;;;;;;16.13;2.10;;;8.20;99.90;;;;;;4200868;28;20040;-87
2023/01/13 08:42:35;;;;;;;11.88;2.83;;;7.50;99.90;;;;;;4199601;28;20070;-86
2023/01/13 08:44:36;;;;;;;18.98;2.38;;;7.80;99.90;;;;;;4199919;28;20076;-85
2023/01/13 08:46:37;;;;;;;18.05;3.83;;;7.90;99.90;;;;;;4201616;28;20040;-87
2023/01/13 08:48:37;;;;;;;16.75;2.25;;;8.50;99.90;;;;;;4179068;28;20041;-87
2023/01/13 08:50:39;;;;;;;19.92;3.28;;;7.90;99.90;;;;;;4200865;28;20047;-86
2023/01/13 08:52:40;;;;;;;27.20;2.97;;;7.90;99.90;;;;;;4200434;28;20119;-87
2023/01/13 08:54:41;;;;;;;20.65;3.17;;;8.00;99.90;;;;;;4200833;28;20110;-86
2023/01/13 08:56:44;;;;;;;19.23;3.22;;;8.30;99.90;;;;;;4200443;28;20056;-85
2023/01/13 08:58:44;;;;;;;19.17;3.53;;;7.90;99.90;;;;;;4200882;28;20094;-86
2023/01/13 09:00:45;;;;;;;21.38;3.22;;;7.90;99.90;;;;;;4199882;28;20135;-87
2023/01/13 09:02:46;;;;;;;24.40;3.05;;;7.90;99.90;;;;;;4200013;28;20086;-86
2023/01/13 09:04:48;;;;;;;22.60;4.00;;;8.50;99.90;;;;;;4200889;28;20036;-86
2023/01/13 09:06:49;;;;;;;22.88;3.22;;;7.90;99.90;;;;;;4182546;28;20045;-85
2023/01/13 09:08:50;;;;;;;18.92;2.60;;;7.80;99.90;;;;;;4199635;28;20123;-85
2023/01/13 09:10:51;;;;;;;17.83;2.83;;;7.80;99.90;;;;;;4177333;28;20043;-85
2023/01/13 09:15:12;;;;;;;17.40;3.63;;;7.70;99.90;;;;;;4199415;28;20516;-85
2023/01/13 09:17:13;;;;;;;21.73;4.50;;;7.70;99.90;;;;;;4199031;28;20491;-87
2023/01/13 09:19:14;;;;;;;15.95;2.65;;;7.60;99.90;;;;;;4200163;28;20408;-86
2023/01/13 09:21:18;;;;;;;16.52;2.85;;;7.80;99.90;;;;;;4200463;28;20128;-86
2023/01/13 09:23:20;;;;;;;9.43;1.67;;;7.50;99.90;;;;;;4199208;28;20161;-87
2023/01/13 09:25:20;;;;;;;12.25;2.22;;;8.50;99.90;;;;;;4198333;28;20505;-86
2023/01/13 09:27:22;;;;;;;15.35;2.47;;;7.40;99.90;;;;;;4200273;28;20051;-86
2023/01/13 09:29:22;;;;;;;13.75;2.63;;;7.70;99.90;;;;;;4198832;28;20076;-86
2023/01/13 09:31:24;;;;;;;11.52;1.80;;;7.50;99.90;;;;;;4199830;28;20044;-87
2023/01/13 09:35:44;;;;;;;;;;;7.40;99.90;;;;;;4199427;28;20052;-86
2023/01/13 09:37:45;;;;;;;12.07;1.63;;;8.30;99.90;;;;;;4181220;28;20420;-87
2023/01/13 09:39:46;;;;;;;14.95;3.17;;;7.30;99.90;;;;;;4181451;28;20049;-86
2023/01/13 09:44:18;;;;;;;24.50;3.05;;;8.30;99.90;;;;;;4199003;28;20123;-87
2023/01/13 09:46:43;;;;;;;23.65;3.00;;;7.60;99.90;;;;;;4182098;28;20061;-86
2023/01/13 09:48:53;;;;;;;8.23;1.98;;;7.40;99.90;;;;;;4200538;28;20041;-86
2023/01/13 09:51:05;;;;;;;18.40;3.65;;;7.50;99.90;;;;;;4198242;28;20072;-87
2023/01/13 09:53:13;;;;;;;19.77;2.13;;;7.00;99.90;;;;;;4170603;28;20049;-87
2023/01/13 09:55:17;;;;;;;14.50;2.50;;;7.30;99.90;;;;;;4197997;28;20057;-86
2023/01/13 09:57:20;;;;;;;14.95;1.67;;;8.10;99.90;;;;;;4198609;28;20044;-86
2023/01/13 09:59:21;;;;;;;22.48;2.53;;;8.00;99.90;;;;;;4197686;28;20131;-87
2023/01/13 10:01:48;;;;;;;20.40;2.92;;;7.30;99.90;;;;;;4197318;28;20055;-86
2023/01/13 10:03:48;;;;;;;19.45;2.70;;;7.30;99.90;;;;;;4199417;28;20044;-85
2023/01/13 10:06:11;;;;;;;16.35;2.67;;;7.20;99.90;;;;;;4199731;28;20123;-85
2023/01/13 10:08:39;;;;;;;11.82;1.83;;;7.20;99.90;;;;;;4198420;28;20079;-86
2023/01/13 10:10:49;;;;;;;14.23;2.43;;;7.70;99.90;;;;;;4195141;28;20488;-86
2023/01/13 10:15:22;;;;;;;15.18;3.05;;;7.10;99.90;;;;;;4198830;28;20059;-85
2023/01/13 10:17:31;;;;;;;18.00;2.60;;;7.20;99.90;;;;;;4193880;28;20033;-86
2023/01/13 10:19:46;;;;;;;19.10;2.17;;;8.00;99.90;;;;;;4203837;28;20536;-85
2023/01/13 10:22:00;;;;;;;18.00;2.72;;;8.20;99.90;;;;;;4209650;28;20109;-85
2023/01/13 10:24:07;;;;;;;12.00;2.38;;;7.50;99.90;;;;;;4213984;28;20116;-86
2023/01/13 10:26:45;;;;;;;11.55;1.73;;;7.30;99.90;;;;;;4199238;28;20055;-87
2023/01/13 10:28:53;;;;;;;18.55;3.25;;;7.30;99.90;;;;;;4214979;28;20041;-86
2023/01/13 10:30:54;;;;;;;7.10;1.77;;;7.40;99.90;;;;;;4205703;28;20052;-86
2023/01/13 10:32:58;;;;;;;14.82;2.72;;;7.40;99.90;;;;;;4197905;28;20091;-87
2023/01/13 10:35:00;;;;;;;30.88;3.08;;;7.40;99.90;;;;;;4197688;28;20076;-86
2023/01/13 10:37:06;;;;;;;14.63;2.15;;;7.50;99.90;;;;;;4198800;28;20116;-87
2023/01/13 10:39:18;;;;;;;12.80;1.92;;;7.50;99.90;;;;;;4197552;28;20119;-87
2023/01/13 10:41:29;;;;;;;18.48;1.92;;;7.70;99.90;;;;;;4197730;28;20554;-87
2023/01/13 10:43:31;;;;;;;17.50;1.98;;;7.60;99.90;;;;;;4187409;28;20044;-87
2023/01/13 10:45:32;;;;;;;19.02;2.00;;;7.70;99.90;;;;;;4198045;28;20093;-87
2023/01/13 10:47:35;;;;;;;13.75;2.15;;;7.60;99.90;;;;;;4197828;28;20036;-87
2023/01/13 10:49:37;;;;;;;18.67;2.70;;;7.60;99.90;;;;;;4197996;28;20382;-87
2023/01/13 10:51:38;;;;;;;13.38;2.45;;;7.70;99.90;;;;;;4197130;28;20063;-87
2023/01/13 10:54:11;;;;;;;20.42;2.17;;;7.70;99.90;;;;;;4197830;28;20048;-87
2023/01/13 10:56:17;;;;;;;19.40;2.47;;;7.70;99.90;;;;;;4177626;28;20044;-87
2023/01/13 10:58:21;;;;;;;10.95;2.92;;;7.70;99.90;;;;;;4197470;28;20044;-87
2023/01/13 11:00:39;;;;;;;20.23;2.10;;;7.80;99.90;;;;;;4198435;28;20076;-88
2023/01/13 11:02:41;;;;;;;16.25;3.03;;;7.80;99.90;;;;;;4197314;28;20047;-88
2023/01/13 11:04:54;;;;;;;11.82;2.28;;;7.90;99.90;;;;;;4197701;28;20036;-87
2023/01/13 11:06:55;;;;;;;17.60;3.40;;;7.90;99.90;;;;;;4197646;28;20100;-87
2023/01/13 11:08:57;;;;;;;16.17;2.70;;;7.80;99.90;;;;;;4197987;28;20093;-87
2023/01/13 11:10:58;;;;;;;17.38;1.42;;;7.90;99.90;;;;;;4169140;28;20056;-88
2023/01/13 11:13:20;;;;;;;15.80;2.10;;;7.90;99.90;;;;;;4196947;28;20045;-88
2023/01/13 11:15:32;;;;;;;18.33;2.80;;;7.90;99.90;;;;;;4182750;28;20118;-88
2023/01/13 11:17:46;;;;;;;11.30;1.55;;;8.00;99.90;;;;;;4181385;28;20045;-87
2023/01/13 11:19:52;;;;;;;13.48;2.90;;;8.00;99.90;;;;;;4181713;28;20507;-89
2023/01/13 11:22:05;;;;;;;27.33;4.15;;;8.00;99.90;;;;;;4171060;28;20096;-88
2023/01/13 11:24:35;;;;;;;18.08;2.05;;;8.00;99.90;;;;;;4197261;28;20540;-89
2023/01/13 11:27:10;;;;;;;20.27;2.47;;;8.00;99.90;;;;;;4185257;28;20059;-89
2023/01/13 11:29:26;;;;;;;14.52;1.65;;;8.00;99.90;;;;;;4182570;28;20449;-88
2023/01/13 11:31:32;;;;;;;11.50;1.90;;;8.00;99.90;;;;;;4198316;28;20503;-88
2023/01/13 11:33:51;;;;;;;5.88;0.80;;;8.00;99.90;;;;;;4194615;28;20048;-89
2023/01/13 11:36:12;;;;;;;16.50;2.00;;;8.00;99.90;;;;;;4198051;28;20459;-88
2023/01/13 11:38:29;;;;;;;11.05;2.25;;;7.90;99.90;;;;;;4194010;28;20036;-88
2023/01/13 11:40:36;;;;;;;18.48;2.58;;;7.90;99.90;;;;;;4198413;28;20066;-89